createdAt,value
2018-11-28T00:00:21.543Z,37.03
2018-11-28T00:02:50.509Z,33.90
2018-11-28T00:05:19.210Z,37.87
2018-11-28T00:07:47.879Z,37.27
2018-11-28T00:10:16.468Z,37.53
2018-11-28T00:12:45.026Z,35.97
2018-11-28T00:15:15.497Z,37.70
2018-11-28T00:17:44.095Z,37.30
2018-11-28T00:20:16.175Z,37.23
2018-11-28T00:22:44.797Z,33.77
2018-11-28T00:25:14.398Z,34.47
2018-11-28T00:27:43.181Z,63.97
2018-11-28T00:30:18.182Z,31.00
2018-11-28T00:32:46.849Z,45.00
2018-11-28T00:35:19.289Z,39.57
2018-11-28T00:37:48.441Z,37.47
2018-11-28T00:40:18.458Z,36.87
2018-11-28T00:42:47.087Z,36.33
2018-11-28T00:45:20.332Z,33.00
2018-11-28T00:47:49.002Z,34.20
2018-11-28T00:50:26.942Z,44.93
2018-11-28T00:52:56.163Z,46.47
2018-11-28T00:55:24.708Z,32.97
2018-11-28T00:57:53.258Z,34.13
2018-11-28T01:00:23.645Z,41.77
2018-11-28T01:02:52.282Z,38.67
2018-11-28T01:05:20.972Z,31.73
2018-11-28T01:07:51.869Z,45.60
2018-11-28T01:10:21.550Z,33.30
2018-11-28T01:12:50.842Z,37.17
2018-11-28T01:15:20.035Z,33.57
2018-11-28T01:17:48.619Z,33.67
2018-11-28T01:20:18.209Z,37.27
2018-11-28T01:22:46.902Z,36.67
2018-11-28T01:25:18.292Z,32.07
2018-11-28T01:27:46.883Z,34.10
2018-11-28T01:30:21.484Z,39.13
2018-11-28T01:32:50.727Z,31.53
2018-11-28T01:35:20.182Z,37.33
2018-11-28T01:37:48.732Z,27.53
2018-11-28T01:40:20.373Z,28.63
2018-11-28T01:42:48.874Z,25.97
2018-11-28T01:45:18.421Z,25.20
2018-11-28T01:47:47.022Z,26.57
2018-11-28T01:50:17.459Z,26.13
2018-11-28T01:52:46.058Z,29.53
2018-11-28T01:55:16.391Z,26.00
2018-11-28T01:57:44.899Z,27.50
2018-11-28T02:00:16.048Z,29.30
2018-11-28T02:02:44.658Z,27.73
2018-11-28T02:05:13.357Z,24.67
2018-11-28T02:07:41.944Z,24.10
2018-11-28T02:10:12.261Z,26.70
2018-11-28T02:12:40.978Z,25.30
2018-11-28T02:15:11.249Z,23.83
2018-11-28T02:17:39.890Z,30.07
2018-11-28T02:20:10.834Z,29.47
2018-11-28T02:22:39.377Z,26.30
2018-11-28T02:25:09.267Z,25.67
2018-11-28T02:27:37.786Z,27.70
2018-11-28T02:30:09.609Z,26.30
2018-11-28T02:32:38.163Z,25.40
2018-11-28T02:35:08.346Z,42.70
2018-11-28T02:37:36.882Z,35.50
2018-11-28T02:40:08.168Z,21.57
2018-11-28T02:42:36.660Z,24.37
2018-11-28T02:45:09.012Z,27.73
2018-11-28T02:47:37.535Z,24.90
2018-11-28T02:50:06.873Z,22.83
2018-11-28T02:52:35.527Z,24.03
2018-11-28T02:55:04.807Z,23.80
2018-11-28T02:57:33.362Z,42.37
2018-11-28T03:00:01.989Z,43.20
2018-11-28T03:02:30.517Z,27.87
2018-11-28T03:04:58.995Z,32.00
2018-11-28T03:07:27.657Z,29.73
2018-11-28T03:09:56.254Z,34.37
2018-11-28T03:12:24.797Z,25.57
2018-11-28T03:14:53.373Z,51.10
2018-11-28T03:17:25.739Z,41.30
2018-11-28T03:19:54.644Z,36.07
2018-11-28T03:22:23.141Z,24.90
2018-11-28T03:24:52.255Z,40.47
2018-11-28T03:27:20.741Z,38.63
2018-11-28T03:29:49.205Z,31.40
2018-11-28T03:32:17.769Z,54.23
2018-11-28T03:34:46.225Z,57.10
2018-11-28T03:37:14.773Z,68.93
2018-11-28T03:39:43.234Z,74.67
2018-11-28T03:42:12.416Z,40.57
2018-11-28T03:44:41.478Z,28.80
2018-11-28T03:47:09.979Z,44.63
2018-11-28T03:49:38.475Z,30.03
2018-11-28T03:52:07.086Z,40.67
2018-11-28T03:54:36.144Z,37.03
2018-11-28T03:57:04.679Z,31.97
2018-11-28T03:59:33.328Z,31.03
2018-11-28T04:02:01.831Z,41.50
2018-11-28T04:04:30.369Z,31.70
2018-11-28T04:06:58.864Z,21.23
2018-11-28T04:09:34.023Z,39.00
2018-11-28T04:12:02.615Z,51.07
2018-11-28T04:14:31.141Z,44.57
2018-11-28T04:16:59.596Z,33.43
2018-11-28T04:19:28.810Z,61.53
2018-11-28T04:21:57.497Z,34.67
2018-11-28T04:24:26.081Z,43.37
2018-11-28T04:26:54.600Z,33.63
2018-11-28T04:29:23.067Z,24.60
2018-11-28T04:31:52.122Z,23.03
2018-11-28T04:34:20.648Z,32.07
2018-11-28T04:36:49.150Z,32.97
2018-11-28T04:39:17.738Z,57.63
2018-11-28T04:41:46.924Z,57.20
2018-11-28T04:44:15.626Z,51.83
2018-11-28T04:46:44.403Z,27.30
2018-11-28T04:49:13.661Z,46.97
2018-11-28T04:51:43.019Z,46.43
2018-11-28T04:54:11.541Z,41.97
2018-11-28T04:56:40.043Z,26.87
2018-11-28T04:59:08.626Z,25.93
2018-11-28T05:01:37.174Z,53.37
2018-11-28T05:04:06.067Z,29.50
2018-11-28T05:07:48.188Z,70.00
2018-11-28T05:10:32.904Z,27.77
2018-11-28T05:13:01.411Z,39.67
2018-11-28T05:15:31.166Z,27.13
2018-11-28T05:17:59.773Z,27.37
2018-11-28T05:20:34.806Z,31.13
2018-11-28T05:23:04.283Z,24.53
2018-11-28T05:25:33.886Z,32.03
2018-11-28T05:28:02.455Z,26.47
2018-11-28T05:30:31.974Z,25.93
2018-11-28T05:33:00.838Z,27.30
2018-11-28T05:35:33.382Z,24.23
2018-11-28T05:38:02.840Z,26.43
2018-11-28T05:40:31.373Z,26.40
2018-11-28T05:42:59.998Z,23.00
2018-11-28T05:45:28.582Z,24.67
2018-11-28T05:47:57.243Z,24.60
2018-11-28T05:50:25.738Z,22.17
2018-11-28T05:52:54.270Z,20.80
2018-11-28T05:55:24.169Z,24.13
2018-11-28T05:57:52.773Z,23.93
2018-11-28T06:00:32.357Z,26.80
2018-11-28T06:03:00.874Z,24.27
2018-11-28T06:05:29.465Z,22.67
2018-11-28T06:07:58.042Z,22.40
2018-11-28T06:10:27.265Z,25.37
2018-11-28T06:12:56.037Z,26.57
2018-11-28T06:15:24.549Z,27.00
2018-11-28T06:17:53.017Z,25.00
2018-11-28T06:20:21.550Z,22.40
2018-11-28T06:22:50.209Z,26.57
2018-11-28T06:25:18.817Z,23.90
2018-11-28T06:27:47.284Z,26.60
2018-11-28T06:30:17.893Z,27.33
2018-11-28T06:32:51.320Z,23.83
2018-11-28T06:35:15.273Z,25.43
2018-11-28T06:37:44.253Z,25.70
2018-11-28T06:40:13.937Z,24.00
2018-11-28T06:42:42.704Z,25.30
2018-11-28T06:45:12.539Z,26.63
2018-11-28T06:47:41.063Z,28.33
2018-11-28T06:50:12.028Z,28.03
2018-11-28T06:52:40.545Z,29.60
2018-11-28T06:55:10.668Z,32.00
2018-11-28T06:57:39.245Z,35.67
2018-11-28T07:00:14.864Z,30.73
2018-11-28T07:02:43.488Z,28.87
2018-11-28T07:05:13.520Z,30.60
2018-11-28T07:07:42.083Z,27.37
2018-11-28T07:10:12.277Z,27.57
2018-11-28T07:12:40.850Z,27.33
2018-11-28T07:15:11.695Z,26.97
2018-11-28T07:17:40.810Z,27.13
2018-11-28T07:20:10.745Z,27.67
2018-11-28T07:22:39.302Z,27.43
2018-11-28T07:25:10.844Z,27.33
2018-11-28T07:27:44.868Z,24.87
2018-11-28T07:30:15.042Z,26.43
2018-11-28T07:32:43.698Z,24.63
2018-11-28T07:35:13.075Z,26.60
2018-11-28T07:37:41.626Z,28.03
2018-11-28T07:40:11.698Z,27.67
2018-11-28T07:42:40.883Z,27.50
2018-11-28T07:45:11.097Z,27.47
2018-11-28T07:47:39.628Z,32.87
2018-11-28T07:50:09.453Z,32.27
2018-11-28T07:52:38.575Z,28.77
2018-11-28T07:55:09.159Z,29.87
2018-11-28T07:57:38.417Z,32.90
2018-11-28T08:00:11.800Z,33.10
2018-11-28T08:02:40.585Z,34.10
2018-11-28T08:05:10.179Z,27.17
2018-11-28T08:07:38.784Z,25.60
2018-11-28T08:10:18.466Z,26.93
2018-11-28T08:12:47.079Z,26.67
2018-11-28T08:15:15.698Z,29.60
2018-11-28T08:17:44.351Z,30.63
2018-11-28T08:20:12.859Z,28.87
2018-11-28T08:22:41.390Z,30.37
2018-11-28T08:25:12.792Z,30.13
2018-11-28T08:27:40.380Z,33.43
2018-11-28T08:30:26.683Z,41.27
2018-11-28T08:32:56.303Z,36.70
2018-11-28T08:35:25.003Z,34.90
2018-11-28T08:37:53.845Z,31.40
2018-11-28T08:40:24.299Z,30.47
2018-11-28T08:42:53.575Z,35.63
2018-11-28T08:45:22.369Z,34.73
2018-11-28T08:47:52.994Z,34.87
2018-11-28T08:50:23.542Z,33.83
2018-11-28T08:52:52.049Z,37.23
2018-11-28T08:55:20.636Z,31.33
2018-11-28T08:57:49.283Z,42.93
2018-11-28T09:00:19.020Z,41.40
2018-11-28T09:02:49.506Z,41.27
2018-11-28T09:05:18.106Z,50.60
2018-11-28T09:07:46.725Z,63.73
2018-11-28T09:10:16.193Z,63.07
2018-11-28T09:12:45.377Z,48.17
2018-11-28T09:15:16.243Z,41.00
2018-11-28T09:17:44.728Z,41.70
2018-11-28T09:20:14.015Z,50.77
2018-11-28T09:22:42.557Z,38.17
2018-11-28T09:25:12.531Z,32.97
2018-11-28T09:27:41.082Z,24.93
2018-11-28T09:30:16.530Z,28.30
2018-11-28T09:32:45.425Z,23.53
2018-11-28T09:35:14.763Z,21.87
2018-11-28T09:37:45.853Z,23.27
2018-11-28T09:40:15.464Z,23.83
2018-11-28T09:42:44.019Z,21.43
2018-11-28T09:45:13.871Z,20.07
2018-11-28T09:47:43.237Z,20.30
2018-11-28T09:50:19.680Z,19.00
2018-11-28T09:52:48.286Z,18.07
2018-11-28T09:55:21.835Z,19.53
2018-11-28T09:57:50.328Z,20.17
2018-11-28T10:00:22.766Z,20.53
2018-11-28T10:02:52.484Z,17.20
2018-11-28T10:05:25.436Z,18.93
2018-11-28T10:07:54.038Z,18.73
2018-11-28T10:10:22.570Z,17.73
2018-11-28T10:12:51.109Z,18.53
2018-11-28T10:15:21.486Z,21.07
2018-11-28T10:17:50.072Z,21.03
2018-11-28T10:20:19.190Z,18.17
2018-11-28T10:22:48.695Z,17.13
2018-11-28T10:25:18.358Z,21.00
2018-11-28T10:27:49.135Z,21.03
2018-11-28T10:30:25.844Z,18.30
2018-11-28T10:32:54.937Z,15.03
2018-11-28T10:35:23.518Z,17.33
2018-11-28T10:37:52.209Z,16.10
2018-11-28T10:40:21.694Z,17.57
2018-11-28T10:42:52.665Z,19.20
2018-11-28T10:45:22.461Z,15.37
2018-11-28T10:47:51.763Z,16.47
2018-11-28T10:50:20.307Z,18.03
2018-11-28T10:52:49.022Z,17.80
2018-11-28T10:55:18.550Z,20.73
2018-11-28T10:57:47.119Z,16.57
2018-11-28T11:00:28.924Z,14.63
2018-11-28T11:03:02.735Z,13.27
2018-11-28T11:05:36.612Z,14.73
2018-11-28T11:08:10.949Z,15.97
2018-11-28T11:10:44.715Z,14.00
2018-11-28T11:13:18.578Z,14.37
2018-11-28T11:15:52.522Z,13.77
2018-11-28T11:18:21.132Z,14.87
2018-11-28T11:20:50.311Z,14.93
2018-11-28T11:23:18.819Z,16.43
2018-11-28T11:25:47.378Z,15.30
2018-11-28T11:28:16.429Z,15.17
2018-11-28T11:30:45.559Z,17.63
2018-11-28T11:33:14.093Z,12.50
2018-11-28T11:35:42.659Z,14.50
2018-11-28T11:38:11.305Z,15.90
2018-11-28T11:40:39.787Z,14.93
2018-11-28T11:43:08.840Z,38.63
2018-11-28T11:45:37.455Z,25.07
2018-11-28T11:48:06.554Z,21.17
2018-11-28T11:50:35.289Z,22.53
2018-11-28T11:53:03.831Z,25.60
2018-11-28T11:55:33.179Z,34.97
2018-11-28T11:58:01.622Z,34.83
2018-11-28T12:00:30.625Z,21.00
2018-11-28T12:03:14.126Z,17.73
2018-11-28T12:05:48.291Z,16.73
2018-11-28T12:08:16.951Z,14.77
2018-11-28T12:10:45.612Z,15.90
2018-11-28T12:13:14.381Z,15.27
2018-11-28T12:15:42.890Z,17.73
2018-11-28T12:18:11.483Z,15.43
2018-11-28T12:20:56.200Z,16.23
2018-11-28T12:23:24.894Z,16.03
2018-11-28T12:25:53.595Z,18.57
2018-11-28T12:28:22.170Z,16.43
2018-11-28T12:30:52.147Z,21.40
2018-11-28T12:33:20.712Z,17.43
2018-11-28T12:35:49.244Z,15.47
2018-11-28T12:38:17.817Z,16.93
2018-11-28T12:40:46.383Z,21.40
2018-11-28T12:43:15.010Z,17.50
2018-11-28T12:45:46.679Z,14.23
2018-11-28T12:48:15.692Z,14.90
2018-11-28T12:50:44.484Z,16.47
2018-11-28T12:53:14.196Z,15.40
2018-11-28T12:55:42.832Z,18.00
2018-11-28T12:58:14.574Z,15.87
2018-11-28T13:00:43.141Z,15.77
2018-11-28T13:03:13.111Z,17.00
2018-11-28T13:05:41.838Z,15.33
2018-11-28T13:08:10.508Z,17.63
2018-11-28T13:10:40.434Z,16.93
2018-11-28T13:13:11.141Z,18.30
2018-11-28T13:15:40.091Z,15.50
2018-11-28T13:18:10.458Z,18.30
2018-11-28T13:20:40.460Z,27.27
2018-11-28T13:23:10.109Z,20.37
2018-11-28T13:25:38.673Z,19.67
2018-11-28T13:28:07.517Z,17.30
2018-11-28T13:30:36.509Z,18.87
2018-11-28T13:33:05.150Z,15.83
2018-11-28T13:35:33.757Z,20.77
2018-11-28T13:38:03.529Z,19.57
2018-11-28T13:40:32.087Z,17.23
2018-11-28T13:43:00.640Z,16.40
2018-11-28T13:45:30.796Z,17.60
2018-11-28T13:47:59.327Z,13.23
2018-11-28T13:50:27.924Z,13.67
2018-11-28T13:52:57.197Z,14.87
2018-11-28T13:55:38.552Z,15.70
2018-11-28T13:58:05.788Z,16.80
2018-11-28T14:00:34.553Z,15.80
2018-11-28T14:03:03.111Z,15.57
2018-11-28T14:05:32.421Z,18.00
2018-11-28T14:08:01.711Z,16.20
2018-11-28T14:10:30.301Z,19.37
2018-11-28T14:12:58.947Z,18.50
2018-11-28T14:15:27.472Z,18.97
2018-11-28T14:18:01.083Z,14.93
2018-11-28T14:20:29.672Z,16.47
2018-11-28T14:22:58.206Z,21.67
2018-11-28T14:25:27.157Z,19.50
2018-11-28T14:27:56.335Z,21.57
2018-11-28T14:30:25.322Z,17.43
2018-11-28T14:32:53.839Z,15.67
2018-11-28T14:35:23.139Z,20.30
2018-11-28T14:37:51.851Z,16.00
2018-11-28T14:40:21.438Z,17.17
2018-11-28T14:42:52.098Z,16.10
2018-11-28T14:45:20.852Z,16.40
2018-11-28T14:47:50.408Z,22.27
2018-11-28T14:50:22.063Z,22.90
2018-11-28T14:52:51.810Z,18.47
2018-11-28T14:55:25.709Z,22.13
2018-11-28T14:57:54.499Z,24.30
2018-11-28T15:00:24.412Z,31.37
2018-11-28T15:02:55.222Z,29.43
2018-11-28T15:05:38.446Z,30.10
2018-11-28T15:08:11.522Z,27.33
2018-11-28T15:10:48.026Z,26.10
2018-11-28T15:13:16.656Z,21.93
2018-11-28T15:15:45.939Z,23.17
2018-11-28T15:18:14.510Z,26.40
2018-11-28T15:20:43.081Z,20.77
2018-11-28T15:23:11.796Z,25.90
2018-11-28T15:25:40.382Z,21.30
2018-11-28T15:28:08.920Z,20.23
2018-11-28T15:30:39.289Z,19.53
2018-11-28T15:33:08.627Z,23.43
2018-11-28T15:35:37.642Z,22.37
2018-11-28T15:38:06.271Z,30.40
2018-11-28T15:40:34.899Z,26.77
2018-11-28T15:43:04.297Z,28.63
2018-11-28T15:45:32.924Z,31.90
2018-11-28T15:48:01.599Z,29.57
2018-11-28T15:50:30.319Z,29.13
2018-11-28T15:52:59.101Z,23.67
2018-11-28T15:55:27.878Z,24.53
2018-11-28T15:57:56.653Z,23.67
2018-11-28T16:00:25.958Z,25.07
2018-11-28T16:02:55.155Z,21.87
2018-11-28T16:05:23.819Z,23.77
2018-11-28T16:07:52.477Z,24.13
2018-11-28T16:10:26.227Z,25.57
2018-11-28T16:12:54.884Z,25.60
2018-11-28T16:15:27.006Z,29.43
2018-11-28T16:17:55.604Z,31.07
2018-11-28T16:20:24.262Z,34.60
2018-11-28T16:22:52.824Z,49.93
2018-11-28T16:25:21.544Z,49.83
2018-11-28T16:27:50.272Z,48.37
2018-11-28T16:30:19.437Z,43.07
2018-11-28T16:32:48.061Z,36.33
2018-11-28T16:35:17.803Z,26.80
2018-11-28T16:37:47.238Z,24.70
2018-11-28T16:40:16.355Z,25.40
2018-11-28T16:42:45.010Z,19.30
2018-11-28T16:45:17.924Z,18.80
2018-11-28T16:47:46.900Z,20.07
2018-11-28T16:50:16.457Z,22.03
2018-11-28T16:52:45.230Z,21.07
2018-11-28T16:55:15.804Z,24.30
2018-11-28T16:57:45.679Z,21.87
2018-11-28T17:00:17.084Z,20.73
2018-11-28T17:02:45.796Z,20.10
2018-11-28T17:05:16.627Z,22.13
2018-11-28T17:07:45.504Z,18.87
2018-11-28T17:10:16.091Z,18.40
2018-11-28T17:12:46.322Z,20.60
2018-11-28T17:15:16.222Z,20.10
2018-11-28T17:17:44.914Z,20.93
2018-11-28T17:20:14.856Z,19.57
2018-11-28T17:22:43.882Z,20.57
2018-11-28T17:25:15.039Z,21.23
2018-11-28T17:27:43.871Z,24.20
2018-11-28T17:30:18.639Z,19.43
2018-11-28T17:32:42.616Z,18.67
2018-11-28T17:35:12.237Z,19.80
2018-11-28T17:37:40.950Z,23.57
2018-11-28T17:40:12.251Z,21.77
2018-11-28T17:42:41.958Z,24.50
2018-11-28T17:45:11.989Z,22.27
2018-11-28T17:47:40.818Z,21.37
2018-11-28T17:50:12.444Z,23.53
2018-11-28T17:52:41.586Z,21.87
2018-11-28T17:55:12.504Z,20.87
2018-11-28T17:57:41.175Z,20.47
2018-11-28T18:00:11.681Z,20.93
2018-11-28T18:02:40.652Z,19.80
2018-11-28T18:05:10.388Z,20.70
2018-11-28T18:07:39.756Z,22.10
2018-11-28T18:10:10.487Z,21.27
2018-11-28T18:12:43.748Z,20.33
2018-11-28T18:15:13.132Z,20.67
2018-11-28T18:17:41.810Z,20.47
2018-11-28T18:20:10.616Z,19.67
2018-11-28T18:22:39.464Z,19.80
2018-11-28T18:25:09.740Z,19.53
2018-11-28T18:27:38.508Z,25.10
2018-11-28T18:30:09.167Z,19.67
2018-11-28T18:32:37.792Z,17.80
2018-11-28T18:35:07.943Z,18.30
2018-11-28T18:37:36.763Z,20.00
2018-11-28T18:40:07.973Z,18.90
2018-11-28T18:42:36.797Z,18.03
2018-11-28T18:45:08.727Z,19.13
2018-11-28T18:47:37.489Z,20.70
2018-11-28T18:50:07.423Z,21.63
2018-11-28T18:52:36.189Z,19.83
2018-11-28T18:55:06.706Z,21.73
2018-11-28T18:57:36.159Z,19.33
2018-11-28T19:00:07.186Z,20.50
2018-11-28T19:02:35.953Z,18.90
2018-11-28T19:05:05.158Z,17.80
2018-11-28T19:07:34.505Z,23.53
2018-11-28T19:10:03.328Z,23.10
2018-11-28T19:12:31.996Z,19.90
2018-11-28T19:15:00.866Z,21.53
2018-11-28T19:17:29.645Z,19.67
2018-11-28T19:19:58.849Z,17.37
2018-11-28T19:22:27.516Z,21.07
2018-11-28T19:24:56.235Z,20.27
2018-11-28T19:27:25.093Z,21.40
2018-11-28T19:29:53.839Z,20.77
2018-11-28T19:32:22.673Z,22.00
2018-11-28T19:34:51.312Z,21.17
2018-11-28T19:37:20.023Z,19.97
2018-11-28T19:39:48.828Z,20.97
2018-11-28T19:42:17.465Z,22.83
2018-11-28T19:44:46.309Z,20.73
2018-11-28T19:47:14.970Z,18.73
2018-11-28T19:49:43.743Z,18.57
2018-11-28T19:52:12.508Z,18.47
2018-11-28T19:54:41.203Z,18.87
2018-11-28T19:57:10.003Z,17.03
2018-11-28T19:59:38.836Z,21.23
2018-11-28T20:02:07.673Z,21.23
2018-11-28T20:04:36.360Z,21.00
2018-11-28T20:07:05.376Z,20.43
2018-11-28T20:09:34.323Z,21.83
2018-11-28T20:12:03.303Z,19.97
2018-11-28T20:14:31.984Z,23.63
2018-11-28T20:17:00.805Z,23.03
2018-11-28T20:19:29.515Z,22.30
2018-11-28T20:21:58.300Z,24.03
2018-11-28T20:24:26.979Z,22.03
2018-11-28T20:26:55.667Z,20.33
2018-11-28T20:29:24.361Z,23.33
2018-11-28T20:31:53.145Z,21.97
2018-11-28T20:34:21.848Z,24.50
2018-11-28T20:36:51.318Z,27.53
2018-11-28T20:39:20.115Z,23.67
2018-11-28T20:41:49.619Z,26.80
2018-11-28T20:44:18.377Z,24.97
2018-11-28T20:46:47.025Z,27.63
2018-11-28T20:49:15.737Z,26.63
2018-11-28T20:51:44.425Z,29.20
2018-11-28T20:54:13.137Z,27.03
2018-11-28T20:56:41.866Z,25.80
2018-11-28T20:59:10.483Z,27.37
2018-11-28T21:01:39.246Z,26.97
2018-11-28T21:04:07.975Z,24.37
2018-11-28T21:06:36.688Z,27.20
2018-11-28T21:09:09.320Z,29.23
2018-11-28T21:11:38.043Z,32.37
2018-11-28T21:14:07.624Z,25.57
2018-11-28T21:16:36.307Z,25.37
2018-11-28T21:19:04.996Z,28.80
2018-11-28T21:21:33.669Z,23.93
2018-11-28T21:24:02.855Z,23.70
2018-11-28T21:26:31.484Z,26.80
2018-11-28T21:29:00.114Z,26.30
2018-11-28T21:31:28.743Z,27.37
2018-11-28T21:33:57.499Z,27.63
2018-11-28T21:36:26.233Z,28.37
2018-11-28T21:38:55.055Z,27.70
2018-11-28T21:41:23.629Z,24.80
2018-11-28T21:43:52.167Z,28.70
2018-11-28T21:46:20.841Z,26.40
2018-11-28T21:48:49.595Z,27.00
2018-11-28T21:51:18.215Z,28.07
2018-11-28T21:53:46.798Z,25.50
2018-11-28T21:56:15.352Z,26.10
2018-11-28T21:58:43.892Z,26.40
2018-11-28T22:01:13.010Z,25.17
2018-11-28T22:03:41.581Z,21.37
2018-11-28T22:06:10.296Z,26.37
2018-11-28T22:08:38.894Z,27.17
2018-11-28T22:11:07.422Z,32.73
2018-11-28T22:13:35.984Z,33.87
2018-11-28T22:16:04.850Z,39.27
2018-11-28T22:18:33.382Z,37.03
2018-11-28T22:21:01.968Z,40.03
2018-11-28T22:23:30.634Z,33.23
2018-11-28T22:25:59.265Z,32.30
2018-11-28T22:28:27.747Z,34.30
2018-11-28T22:30:56.301Z,32.33
2018-11-28T22:33:24.953Z,28.83
2018-11-28T22:35:53.419Z,29.00
2018-11-28T22:38:21.886Z,30.77
2018-11-28T22:40:50.382Z,26.00
2018-11-28T22:43:18.879Z,29.17
2018-11-28T22:45:47.413Z,25.93
2018-11-28T22:48:16.039Z,26.90
2018-11-28T22:50:45.713Z,28.30
2018-11-28T22:53:14.257Z,29.20
2018-11-28T22:55:42.939Z,25.80
2018-11-28T22:58:11.448Z,34.53
2018-11-28T23:00:45.466Z,28.07
2018-11-28T23:03:13.982Z,24.80
2018-11-28T23:05:48.594Z,23.17
2018-11-28T23:08:18.139Z,28.30
2018-11-28T23:10:47.107Z,26.17
2018-11-28T23:13:20.421Z,24.77
2018-11-28T23:15:49.573Z,26.90
2018-11-28T23:18:18.137Z,23.77
2018-11-28T23:20:46.921Z,22.87
2018-11-28T23:23:15.489Z,24.90
2018-11-28T23:25:44.143Z,25.33
2018-11-28T23:28:13.483Z,23.60
2018-11-28T23:30:42.056Z,26.17
2018-11-28T23:33:15.942Z,23.63
2018-11-28T23:35:39.973Z,24.10
2018-11-28T23:38:08.673Z,22.43
2018-11-28T23:40:37.289Z,26.17
2018-11-28T23:43:06.292Z,23.63
2018-11-28T23:45:34.819Z,25.50
2018-11-28T23:48:03.525Z,26.10
2018-11-28T23:50:32.036Z,25.30
2018-11-28T23:53:00.635Z,25.10
2018-11-28T23:55:31.146Z,26.13
2018-11-28T23:57:59.629Z,24.70
